createdAt,value
2022-11-24T00:00:29.088Z,37.79
2022-11-24T00:01:29.174Z,37.79
2022-11-24T00:02:29.392Z,37.82
2022-11-24T00:03:29.399Z,37.81
2022-11-24T00:04:29.434Z,37.85
2022-11-24T00:05:29.535Z,37.86
2022-11-24T00:06:29.581Z,37.86
2022-11-24T00:07:29.686Z,37.83
2022-11-24T00:08:29.753Z,37.83
2022-11-24T00:09:30.075Z,37.84
2022-11-24T00:10:29.961Z,37.83
2022-11-24T00:11:30.041Z,37.84
2022-11-24T00:12:30.127Z,37.86
2022-11-24T00:13:30.219Z,37.86
2022-11-24T00:14:30.297Z,37.86
2022-11-24T00:15:36.328Z,37.84
2022-11-24T00:16:30.468Z,37.88
2022-11-24T00:17:30.535Z,37.87
2022-11-24T00:18:30.579Z,37.88
2022-11-24T00:19:30.669Z,37.90
2022-11-24T00:20:30.763Z,37.90
2022-11-24T00:21:30.892Z,37.86
2022-11-24T00:22:30.940Z,37.87
2022-11-24T00:23:31.046Z,37.89
2022-11-24T00:24:31.415Z,37.87
2022-11-24T00:25:31.168Z,37.89
2022-11-24T00:26:31.263Z,37.89
2022-11-24T00:27:31.348Z,37.88
2022-11-24T00:28:31.433Z,37.89
2022-11-24T00:29:31.530Z,37.89
2022-11-24T00:30:31.664Z,37.89
2022-11-24T00:31:31.746Z,37.91
2022-11-24T00:32:31.759Z,37.89
2022-11-24T00:33:31.851Z,37.87
2022-11-24T00:34:32.206Z,37.89
2022-11-24T00:35:32.013Z,37.89
2022-11-24T00:36:32.108Z,37.88
2022-11-24T00:37:32.145Z,37.89
2022-11-24T00:38:32.229Z,37.87
2022-11-24T00:39:32.313Z,37.87
2022-11-24T00:40:35.131Z,37.88
2022-11-24T00:41:32.518Z,37.91
2022-11-24T00:42:32.564Z,37.89
2022-11-24T00:43:32.652Z,37.87
2022-11-24T00:44:32.980Z,37.88
2022-11-24T00:45:33.022Z,37.88
2022-11-24T00:46:39.035Z,37.87
2022-11-24T00:47:33.015Z,37.91
2022-11-24T00:48:33.096Z,37.92
2022-11-24T00:49:33.185Z,37.90
2022-11-24T00:50:33.273Z,37.92
2022-11-24T00:51:33.373Z,37.92
2022-11-24T00:52:33.570Z,37.93
2022-11-24T00:53:33.542Z,37.90
2022-11-24T00:54:33.981Z,37.92
2022-11-24T00:55:33.692Z,37.93
2022-11-24T00:56:33.791Z,37.95
2022-11-24T00:57:33.881Z,37.94
2022-11-24T00:58:34.089Z,37.93
2022-11-24T00:59:34.063Z,37.94
2022-11-24T01:00:34.161Z,37.92
2022-11-24T01:01:34.410Z,37.92
2022-11-24T01:02:34.359Z,37.93
2022-11-24T01:03:34.389Z,37.93
2022-11-24T01:04:34.827Z,37.93
2022-11-24T01:05:34.571Z,37.92
2022-11-24T01:06:34.657Z,37.93
2022-11-24T01:07:34.830Z,37.92
2022-11-24T01:08:34.820Z,37.92
2022-11-24T01:09:34.909Z,37.91
2022-11-24T01:10:35.089Z,37.92
2022-11-24T01:11:35.070Z,37.93
2022-11-24T01:12:35.164Z,37.96
2022-11-24T01:13:35.251Z,37.94
2022-11-24T01:14:35.719Z,37.94
2022-11-24T01:15:35.452Z,37.94
2022-11-24T01:16:35.488Z,37.93
2022-11-24T01:17:41.535Z,37.93
2022-11-24T01:18:35.632Z,37.96
2022-11-24T01:19:35.729Z,37.98
2022-11-24T01:20:35.819Z,37.97
2022-11-24T01:21:35.921Z,37.96
2022-11-24T01:22:36.135Z,37.93
2022-11-24T01:23:36.083Z,37.95
2022-11-24T01:24:36.435Z,37.94
2022-11-24T01:25:36.236Z,37.92
2022-11-24T01:26:36.309Z,37.93
2022-11-24T01:27:36.396Z,37.94
2022-11-24T01:28:37.676Z,37.95
2022-11-24T01:29:36.553Z,37.95
2022-11-24T01:30:36.687Z,37.96
2022-11-24T01:31:36.734Z,37.95
2022-11-24T01:32:36.821Z,37.95
2022-11-24T01:33:36.904Z,37.97
2022-11-24T01:34:37.097Z,37.96
2022-11-24T01:35:37.062Z,37.95
2022-11-24T01:36:37.154Z,37.98
2022-11-24T01:37:37.928Z,37.96
2022-11-24T01:38:37.335Z,37.98
2022-11-24T01:39:37.424Z,37.97
2022-11-24T01:40:37.618Z,37.97
2022-11-24T01:41:37.591Z,37.97
2022-11-24T01:42:37.672Z,37.98
2022-11-24T01:43:37.769Z,37.96
2022-11-24T01:44:37.860Z,37.95
2022-11-24T01:45:37.936Z,37.95
2022-11-24T01:46:38.097Z,37.95
2022-11-24T01:47:38.113Z,37.96
2022-11-24T01:48:44.167Z,37.95
2022-11-24T01:49:38.273Z,37.99
2022-11-24T01:50:38.354Z,37.99
2022-11-24T01:51:38.451Z,37.99
2022-11-24T01:52:38.658Z,37.97
2022-11-24T01:53:38.598Z,37.99
2022-11-24T01:54:38.675Z,37.98
2022-11-24T01:55:38.748Z,37.97
2022-11-24T01:56:38.843Z,37.98
2022-11-24T01:57:38.919Z,37.96
2022-11-24T01:58:39.024Z,37.97
2022-11-24T01:59:39.082Z,37.97
2022-11-24T02:00:39.168Z,37.99
2022-11-24T02:01:39.408Z,38.00
2022-11-24T02:02:39.457Z,37.99
2022-11-24T02:03:39.463Z,38.02
2022-11-24T02:04:39.607Z,38.02
2022-11-24T02:05:39.581Z,38.01
2022-11-24T02:06:39.674Z,37.99
2022-11-24T02:07:39.851Z,37.98
2022-11-24T02:08:39.838Z,37.98
2022-11-24T02:09:39.930Z,37.98
2022-11-24T02:10:40.024Z,38.00
2022-11-24T02:11:40.078Z,37.99
2022-11-24T02:12:40.153Z,38.02
2022-11-24T02:13:40.238Z,38.02
2022-11-24T02:14:40.329Z,38.00
2022-11-24T02:15:40.451Z,38.01
2022-11-24T02:16:40.591Z,38.02
2022-11-24T02:17:40.575Z,38.03
2022-11-24T02:18:40.652Z,38.02
2022-11-24T02:19:46.715Z,38.02
2022-11-24T02:20:40.812Z,38.02
2022-11-24T02:21:40.905Z,37.99
2022-11-24T02:22:41.003Z,37.99
2022-11-24T02:23:41.054Z,38.01
2022-11-24T02:24:41.140Z,38.01
2022-11-24T02:25:41.236Z,38.00
2022-11-24T02:26:41.305Z,38.01
2022-11-24T02:27:41.396Z,38.03
2022-11-24T02:28:41.589Z,38.03
2022-11-24T02:29:41.561Z,38.03
2022-11-24T02:30:41.757Z,38.02
2022-11-24T02:31:41.740Z,38.02
2022-11-24T02:32:41.834Z,38.01
2022-11-24T02:33:41.904Z,38.03
2022-11-24T02:34:42.015Z,38.02
2022-11-24T02:35:42.060Z,38.02
2022-11-24T02:36:42.146Z,38.02
2022-11-24T02:37:42.243Z,38.01
2022-11-24T02:38:42.330Z,38.01
2022-11-24T02:39:42.418Z,37.98
2022-11-24T02:40:42.609Z,38.00
2022-11-24T02:41:42.583Z,38.01
2022-11-24T02:42:42.662Z,38.03
2022-11-24T02:43:42.759Z,38.04
2022-11-24T02:44:42.815Z,38.05
2022-11-24T02:45:42.919Z,38.05
2022-11-24T02:46:43.110Z,38.03
2022-11-24T02:47:43.061Z,38.02
2022-11-24T02:48:43.156Z,38.02
2022-11-24T02:49:43.245Z,38.03
2022-11-24T02:50:49.312Z,38.02
2022-11-24T02:51:43.421Z,38.04
2022-11-24T02:52:43.540Z,38.05
2022-11-24T02:53:43.633Z,38.02
2022-11-24T02:54:43.678Z,38.03
2022-11-24T02:55:43.759Z,38.01
2022-11-24T02:56:43.845Z,38.03
2022-11-24T02:57:43.941Z,38.01
2022-11-24T02:58:44.153Z,38.02
2022-11-24T02:59:44.115Z,38.02
2022-11-24T03:00:44.199Z,38.00
2022-11-24T03:01:44.356Z,38.05
2022-11-24T03:02:44.432Z,38.04
2022-11-24T03:03:44.445Z,38.05
2022-11-24T03:04:44.578Z,38.05
2022-11-24T03:05:44.613Z,38.05
2022-11-24T03:06:44.689Z,38.06
2022-11-24T03:07:44.804Z,38.04
2022-11-24T03:08:44.845Z,38.03
2022-11-24T03:09:44.926Z,38.02
2022-11-24T03:10:45.037Z,38.04
2022-11-24T03:11:45.080Z,38.02
2022-11-24T03:12:45.166Z,38.01
2022-11-24T03:13:45.258Z,38.03
2022-11-24T03:14:45.346Z,38.05
2022-11-24T03:15:45.489Z,38.05
2022-11-24T03:16:45.529Z,38.06
2022-11-24T03:17:45.580Z,38.07
2022-11-24T03:18:45.665Z,38.06
2022-11-24T03:19:45.743Z,38.08
2022-11-24T03:20:45.826Z,38.06
2022-11-24T03:21:52.622Z,38.05
2022-11-24T03:22:46.004Z,38.06
2022-11-24T03:23:46.080Z,38.08
2022-11-24T03:24:46.163Z,38.05
2022-11-24T03:25:46.244Z,38.04
2022-11-24T03:26:46.322Z,38.05
2022-11-24T03:27:46.529Z,38.04
2022-11-24T03:28:46.497Z,38.05
2022-11-24T03:29:46.591Z,38.04
2022-11-24T03:30:46.706Z,38.05
2022-11-24T03:31:46.751Z,38.05
2022-11-24T03:32:46.846Z,38.04
2022-11-24T03:33:47.029Z,38.04
2022-11-24T03:34:47.010Z,38.04
2022-11-24T03:35:47.089Z,38.05
2022-11-24T03:36:47.173Z,38.05
2022-11-24T03:37:47.266Z,38.07
2022-11-24T03:38:47.357Z,38.04
2022-11-24T03:39:47.535Z,38.03
2022-11-24T03:40:47.504Z,38.02
2022-11-24T03:41:47.584Z,38.04
2022-11-24T03:42:47.668Z,38.05
2022-11-24T03:43:48.636Z,38.03
2022-11-24T03:44:47.839Z,38.05
2022-11-24T03:45:47.946Z,38.07
2022-11-24T03:46:48.037Z,38.05
2022-11-24T03:47:48.071Z,38.05
2022-11-24T03:48:48.168Z,38.06
2022-11-24T03:49:48.247Z,38.06
2022-11-24T03:50:48.339Z,38.05
2022-11-24T03:51:48.531Z,38.04
2022-11-24T03:52:54.477Z,38.02
2022-11-24T03:53:48.583Z,38.07
2022-11-24T03:54:48.684Z,38.07
2022-11-24T03:55:48.767Z,38.06
2022-11-24T03:56:48.861Z,38.01
2022-11-24T03:57:48.988Z,38.04
2022-11-24T03:58:49.018Z,38.06
2022-11-24T03:59:49.111Z,38.04
2022-11-24T04:00:49.190Z,38.04
2022-11-24T04:01:49.321Z,38.04
2022-11-24T04:02:49.456Z,38.06
2022-11-24T04:03:49.570Z,38.04
2022-11-24T04:04:49.904Z,38.06
2022-11-24T04:05:49.583Z,38.06
2022-11-24T04:06:49.666Z,38.04
2022-11-24T04:07:49.792Z,38.03
2022-11-24T04:08:49.807Z,38.05
2022-11-24T04:09:50.075Z,38.03
2022-11-24T04:10:49.979Z,38.04
2022-11-24T04:11:50.029Z,38.04
2022-11-24T04:12:50.115Z,38.06
2022-11-24T04:13:50.210Z,38.01
2022-11-24T04:14:50.301Z,38.03
2022-11-24T04:15:50.598Z,38.05
2022-11-24T04:16:50.483Z,38.03
2022-11-24T04:17:50.579Z,38.05
2022-11-24T04:18:50.657Z,38.05
2022-11-24T04:19:50.746Z,38.04
2022-11-24T04:20:50.846Z,38.03
2022-11-24T04:21:50.950Z,38.02
2022-11-24T04:22:50.997Z,38.02
2022-11-24T04:23:57.051Z,38.03
2022-11-24T04:24:51.150Z,38.09
2022-11-24T04:25:51.241Z,38.05
2022-11-24T04:26:51.328Z,38.05
2022-11-24T04:27:51.453Z,38.06
2022-11-24T04:28:51.496Z,38.07
2022-11-24T04:29:51.579Z,38.02
2022-11-24T04:30:51.755Z,38.05
2022-11-24T04:31:51.854Z,38.03
2022-11-24T04:32:51.876Z,38.03
2022-11-24T04:33:51.930Z,38.05
2022-11-24T04:34:52.014Z,38.06
2022-11-24T04:35:52.105Z,38.06
2022-11-24T04:36:52.193Z,38.06
2022-11-24T04:37:52.280Z,38.06
2022-11-24T04:39:25.521Z,38.03
2022-11-24T04:39:52.459Z,38.06
2022-11-24T04:40:52.535Z,38.06
2022-11-24T04:41:52.626Z,38.03
2022-11-24T04:42:52.717Z,38.02
2022-11-24T04:43:52.826Z,38.02
2022-11-24T04:44:52.900Z,38.05
2022-11-24T04:45:52.979Z,37.99
2022-11-24T04:46:53.119Z,38.03
2022-11-24T04:47:53.159Z,38.02
2022-11-24T04:48:53.268Z,38.02
2022-11-24T04:49:53.370Z,38.00
2022-11-24T04:50:53.420Z,38.00
2022-11-24T04:51:53.498Z,38.01
2022-11-24T04:52:53.579Z,38.00
2022-11-24T04:53:53.647Z,38.02
2022-11-24T04:55:00.091Z,38.01
2022-11-24T04:55:53.801Z,38.05
2022-11-24T04:56:53.883Z,38.03
2022-11-24T04:57:53.959Z,38.03
2022-11-24T04:58:54.044Z,38.03
2022-11-24T04:59:54.133Z,38.03
2022-11-24T05:00:54.255Z,38.04
2022-11-24T05:01:54.424Z,38.02
2022-11-24T05:02:54.382Z,38.03
2022-11-24T05:03:54.548Z,38.02
2022-11-24T05:04:54.553Z,37.99
2022-11-24T05:05:54.656Z,38.02
2022-11-24T05:06:54.706Z,38.02
2022-11-24T05:07:54.847Z,38.02
2022-11-24T05:08:54.874Z,38.02
2022-11-24T05:09:59.217Z,38.02
2022-11-24T05:10:55.039Z,38.05
2022-11-24T05:11:55.147Z,38.00
2022-11-24T05:12:55.205Z,38.05
2022-11-24T05:13:55.287Z,38.02
2022-11-24T05:14:55.372Z,38.01
2022-11-24T05:15:55.547Z,38.04
2022-11-24T05:16:55.643Z,38.01
2022-11-24T05:17:55.642Z,38.01
2022-11-24T05:18:55.728Z,38.03
2022-11-24T05:19:55.811Z,38.02
2022-11-24T05:20:55.912Z,38.01
2022-11-24T05:21:56.002Z,38.02
2022-11-24T05:22:56.098Z,37.99
2022-11-24T05:23:56.176Z,37.98
2022-11-24T05:24:56.242Z,37.98
2022-11-24T05:26:02.301Z,37.96
2022-11-24T05:26:56.417Z,37.98
2022-11-24T05:27:56.530Z,37.98
2022-11-24T05:28:56.572Z,37.98
2022-11-24T05:29:56.669Z,37.98
2022-11-24T05:30:56.772Z,37.93
2022-11-24T05:31:56.833Z,37.96
2022-11-24T05:32:56.919Z,37.93
2022-11-24T05:33:57.106Z,37.94
2022-11-24T05:34:57.056Z,37.92
2022-11-24T05:35:57.162Z,37.93
2022-11-24T05:36:57.245Z,37.93
2022-11-24T05:37:57.340Z,37.94
2022-11-24T05:38:57.439Z,37.94
2022-11-24T05:39:57.530Z,37.93
2022-11-24T05:40:57.592Z,37.90
2022-11-24T05:41:57.684Z,37.92
2022-11-24T05:42:57.743Z,37.93
2022-11-24T05:43:57.823Z,37.93
2022-11-24T05:44:57.971Z,37.89
2022-11-24T05:45:58.019Z,37.87
2022-11-24T05:46:58.109Z,37.90
2022-11-24T05:47:58.156Z,37.89
2022-11-24T05:48:58.250Z,37.91
2022-11-24T05:49:58.343Z,37.90
2022-11-24T05:50:58.436Z,37.94
2022-11-24T05:51:58.509Z,37.92
2022-11-24T05:52:58.568Z,37.92
2022-11-24T05:53:58.644Z,37.94
2022-11-24T05:54:58.743Z,37.93
2022-11-24T05:55:58.802Z,37.91
2022-11-24T05:57:05.121Z,37.93
2022-11-24T05:57:58.975Z,37.96
2022-11-24T05:58:59.051Z,37.96
2022-11-24T05:59:59.121Z,37.97
2022-11-24T06:00:59.196Z,37.97
2022-11-24T06:01:59.376Z,37.97
2022-11-24T06:02:59.607Z,37.93
2022-11-24T06:03:59.427Z,37.94
2022-11-24T06:04:59.510Z,37.95
2022-11-24T06:05:59.602Z,37.94
2022-11-24T06:06:59.701Z,37.93
2022-11-24T06:07:59.795Z,37.91
2022-11-24T06:08:59.961Z,37.93
2022-11-24T06:09:59.932Z,37.95
2022-11-24T06:11:00.026Z,37.94
2022-11-24T06:12:00.102Z,37.94
2022-11-24T06:13:00.192Z,37.94
2022-11-24T06:14:00.389Z,37.91
2022-11-24T06:15:00.372Z,37.94
2022-11-24T06:16:00.495Z,37.96
2022-11-24T06:17:00.525Z,37.98
2022-11-24T06:18:00.603Z,37.94
2022-11-24T06:19:00.696Z,37.95
2022-11-24T06:20:00.773Z,37.95
2022-11-24T06:21:10.819Z,37.97
2022-11-24T06:22:00.936Z,37.98
2022-11-24T06:23:00.998Z,37.99
2022-11-24T06:24:01.082Z,38.03
2022-11-24T06:25:01.169Z,38.00
2022-11-24T06:26:01.248Z,38.01
2022-11-24T06:27:01.305Z,37.99
2022-11-24T06:28:07.369Z,38.00
2022-11-24T06:29:01.464Z,38.06
2022-11-24T06:30:01.563Z,38.02
2022-11-24T06:31:01.876Z,38.04
2022-11-24T06:32:01.760Z,38.02
2022-11-24T06:33:01.778Z,38.02
2022-11-24T06:34:01.856Z,38.06
2022-11-24T06:35:01.924Z,38.03
2022-11-24T06:36:02.026Z,38.03
2022-11-24T06:37:02.095Z,38.04
2022-11-24T06:38:02.156Z,38.03
2022-11-24T06:39:02.238Z,38.03
2022-11-24T06:40:02.321Z,38.03
2022-11-24T06:41:02.395Z,38.06
2022-11-24T06:42:02.642Z,38.05
2022-11-24T06:43:02.575Z,38.02
2022-11-24T06:44:02.640Z,38.04
2022-11-24T06:45:07.428Z,38.06
2022-11-24T06:46:02.952Z,38.04
2022-11-24T06:47:02.905Z,38.06
2022-11-24T06:48:03.011Z,38.05
2022-11-24T06:49:03.058Z,38.04
2022-11-24T06:50:03.118Z,38.03
2022-11-24T06:51:03.195Z,38.05
2022-11-24T06:52:03.300Z,38.04
2022-11-24T06:53:03.391Z,38.04
2022-11-24T06:54:03.507Z,38.04
2022-11-24T06:55:03.553Z,38.03
2022-11-24T06:56:03.635Z,38.01
2022-11-24T06:57:03.721Z,38.02
2022-11-24T06:58:03.811Z,38.02
2022-11-24T06:59:10.248Z,38.04
2022-11-24T07:00:03.959Z,38.07
2022-11-24T07:01:04.088Z,38.04
2022-11-24T07:02:04.117Z,38.05
2022-11-24T07:03:04.222Z,38.06
2022-11-24T07:04:04.267Z,38.04
2022-11-24T07:05:04.364Z,38.04
2022-11-24T07:06:04.437Z,38.04
2022-11-24T07:07:04.531Z,38.06
2022-11-24T07:08:04.614Z,38.07
2022-11-24T07:09:04.706Z,38.08
2022-11-24T07:10:04.889Z,38.10
2022-11-24T07:11:04.868Z,38.10
2022-11-24T07:12:04.934Z,38.07
2022-11-24T07:13:04.998Z,38.07
2022-11-24T07:14:05.056Z,38.06
2022-11-24T07:15:05.159Z,38.08
2022-11-24T07:16:05.380Z,38.08
2022-11-24T07:17:05.307Z,38.07
2022-11-24T07:18:05.408Z,38.07
2022-11-24T07:19:05.483Z,38.08
2022-11-24T07:20:05.562Z,38.06
2022-11-24T07:21:05.669Z,38.08
2022-11-24T07:22:05.744Z,38.10
2022-11-24T07:23:05.819Z,38.10
2022-11-24T07:24:05.886Z,38.09
2022-11-24T07:25:05.967Z,38.08
2022-11-24T07:26:07.078Z,38.08
2022-11-24T07:27:06.262Z,38.11
2022-11-24T07:28:06.210Z,38.11
2022-11-24T07:29:06.309Z,38.12
2022-11-24T07:30:12.358Z,38.11
2022-11-24T07:31:06.450Z,38.13
2022-11-24T07:32:06.685Z,38.11
2022-11-24T07:33:06.616Z,38.12
2022-11-24T07:34:06.716Z,38.12
2022-11-24T07:35:06.805Z,38.11
2022-11-24T07:36:06.887Z,38.12
2022-11-24T07:37:06.978Z,38.12
2022-11-24T07:38:07.070Z,38.13
2022-11-24T07:39:07.138Z,38.12
2022-11-24T07:40:07.222Z,38.13
2022-11-24T07:41:07.328Z,38.11
2022-11-24T07:42:07.387Z,38.13
2022-11-24T07:43:07.487Z,38.14
2022-11-24T07:44:07.549Z,38.14
2022-11-24T07:45:07.626Z,38.11
2022-11-24T07:46:07.747Z,38.09
2022-11-24T07:47:07.769Z,38.11
2022-11-24T07:48:07.873Z,38.09
2022-11-24T07:49:08.053Z,38.11
2022-11-24T07:50:08.028Z,38.10
2022-11-24T07:51:08.105Z,38.11
2022-11-24T07:52:08.174Z,38.10
2022-11-24T07:53:08.258Z,38.08
2022-11-24T07:54:08.328Z,38.11
2022-11-24T07:55:08.540Z,38.09
2022-11-24T07:56:08.504Z,38.10
2022-11-24T07:57:08.583Z,38.11
2022-11-24T07:58:08.666Z,38.13
2022-11-24T07:59:08.749Z,38.12
2022-11-24T08:00:08.836Z,38.10
2022-11-24T08:01:15.263Z,38.10
2022-11-24T08:02:09.084Z,38.11
2022-11-24T08:03:09.040Z,38.10
2022-11-24T08:04:09.214Z,38.09
2022-11-24T08:05:09.234Z,38.08
2022-11-24T08:06:26.539Z,38.09
2022-11-24T08:07:09.499Z,38.10
2022-11-24T08:08:09.494Z,38.10
2022-11-24T08:09:09.578Z,38.13
2022-11-24T08:10:09.655Z,38.13
2022-11-24T08:11:09.743Z,38.13
2022-11-24T08:12:09.920Z,38.10
2022-11-24T08:13:09.895Z,38.11
2022-11-24T08:14:09.992Z,38.11
2022-11-24T08:15:11.393Z,38.09
2022-11-24T08:16:10.278Z,38.09
2022-11-24T08:17:10.360Z,38.07
2022-11-24T08:18:10.476Z,38.09
2022-11-24T08:19:10.410Z,38.13
2022-11-24T08:20:10.493Z,38.11
2022-11-24T08:21:10.581Z,38.13
2022-11-24T08:22:10.641Z,38.14
2022-11-24T08:23:10.723Z,38.14
2022-11-24T08:24:10.817Z,38.13
2022-11-24T08:25:10.908Z,38.12
2022-11-24T08:26:10.970Z,38.11
2022-11-24T08:27:11.050Z,38.11
2022-11-24T08:28:11.160Z,38.10
2022-11-24T08:29:11.264Z,38.09
2022-11-24T08:30:11.291Z,38.10
2022-11-24T08:31:11.385Z,38.12
2022-11-24T08:32:21.923Z,38.11
2022-11-24T08:33:11.549Z,38.16
2022-11-24T08:34:11.661Z,38.13
2022-11-24T08:35:14.926Z,38.12
2022-11-24T08:36:11.757Z,38.13
2022-11-24T08:37:11.851Z,38.13
2022-11-24T08:38:11.910Z,38.14
2022-11-24T08:39:12.000Z,38.14
2022-11-24T08:40:12.108Z,38.14
2022-11-24T08:41:12.183Z,38.14
2022-11-24T08:42:12.233Z,38.13
2022-11-24T08:43:12.315Z,38.11
2022-11-24T08:44:12.414Z,38.12
2022-11-24T08:45:20.427Z,38.15
2022-11-24T08:46:12.856Z,38.19
2022-11-24T08:47:12.646Z,38.17
2022-11-24T08:48:12.743Z,38.17
2022-11-24T08:49:12.788Z,38.14
2022-11-24T08:50:12.865Z,38.15
2022-11-24T08:51:12.958Z,38.13
2022-11-24T08:52:13.076Z,38.16
2022-11-24T08:53:13.124Z,38.16
2022-11-24T08:54:13.218Z,38.20
2022-11-24T08:55:13.303Z,38.15
2022-11-24T08:56:13.390Z,38.16
2022-11-24T08:57:18.645Z,38.17
2022-11-24T08:58:13.546Z,38.19
2022-11-24T08:59:13.690Z,38.17
2022-11-24T09:00:13.697Z,38.16
2022-11-24T09:01:13.972Z,38.17
2022-11-24T09:02:13.870Z,38.20
2022-11-24T09:03:20.233Z,38.20
2022-11-24T09:04:14.056Z,38.20
2022-11-24T09:05:49.690Z,38.19
2022-11-24T09:06:14.157Z,38.19
2022-11-24T09:07:14.259Z,38.16
2022-11-24T09:08:14.321Z,38.17
2022-11-24T09:09:14.427Z,38.14
2022-11-24T09:10:14.489Z,38.13
2022-11-24T09:11:14.578Z,38.13
2022-11-24T09:12:14.909Z,38.14
2022-11-24T09:13:14.730Z,38.14
2022-11-24T09:14:14.839Z,38.14
2022-11-24T09:15:14.905Z,38.14
2022-11-24T09:16:15.120Z,38.15
2022-11-24T09:17:15.213Z,38.15
2022-11-24T09:18:15.147Z,38.14
2022-11-24T09:19:15.223Z,38.16
2022-11-24T09:20:15.310Z,38.17
2022-11-24T09:21:15.394Z,38.19
2022-11-24T09:22:15.464Z,38.16
2022-11-24T09:23:15.544Z,38.16
2022-11-24T09:24:15.618Z,38.16
2022-11-24T09:25:15.725Z,38.16
2022-11-24T09:26:15.774Z,38.17
2022-11-24T09:27:15.851Z,38.18
2022-11-24T09:28:15.934Z,38.16
2022-11-24T09:29:16.025Z,38.17
2022-11-24T09:30:16.122Z,38.15
2022-11-24T09:31:16.387Z,38.14
2022-11-24T09:32:16.262Z,38.16
2022-11-24T09:33:16.346Z,38.17
2022-11-24T09:34:22.415Z,38.19
2022-11-24T09:35:16.522Z,38.20
2022-11-24T09:36:16.620Z,38.20
2022-11-24T09:37:16.700Z,38.19
2022-11-24T09:38:16.762Z,38.20
2022-11-24T09:39:16.849Z,38.22
2022-11-24T09:40:16.921Z,38.24
2022-11-24T09:41:17.008Z,38.25
2022-11-24T09:42:17.184Z,38.22
2022-11-24T09:43:17.172Z,38.23
2022-11-24T09:44:17.257Z,38.25
2022-11-24T09:45:26.292Z,38.22
2022-11-24T09:46:17.501Z,38.25
2022-11-24T09:47:17.489Z,38.26
2022-11-24T09:48:17.553Z,38.26
2022-11-24T09:49:17.617Z,38.26
2022-11-24T09:50:17.717Z,38.25
2022-11-24T09:51:17.786Z,38.25
2022-11-24T09:52:17.879Z,38.26
2022-11-24T09:53:17.980Z,38.28
2022-11-24T09:54:18.068Z,38.27
2022-11-24T09:55:18.146Z,38.29
2022-11-24T09:56:18.227Z,38.26
2022-11-24T09:57:18.316Z,38.22
2022-11-24T09:58:18.377Z,38.22
2022-11-24T09:59:18.739Z,38.24
2022-11-24T10:00:18.564Z,38.25
2022-11-24T10:01:18.692Z,38.21
2022-11-24T10:02:18.728Z,38.20
2022-11-24T10:03:19.800Z,38.22
2022-11-24T10:04:18.941Z,38.27
2022-11-24T10:05:25.357Z,38.27
2022-11-24T10:06:19.071Z,38.31
2022-11-24T10:07:19.233Z,38.29
2022-11-24T10:08:19.218Z,38.31
2022-11-24T10:09:19.304Z,38.29
2022-11-24T10:10:24.624Z,38.29
2022-11-24T10:11:19.573Z,38.28
2022-11-24T10:12:19.543Z,38.27
2022-11-24T10:13:19.622Z,38.25
2022-11-24T10:14:19.694Z,38.27
2022-11-24T10:15:19.772Z,38.27
2022-11-24T10:16:19.912Z,38.25
2022-11-24T10:17:20.058Z,38.26
2022-11-24T10:18:20.015Z,38.22
2022-11-24T10:19:20.097Z,38.20
2022-11-24T10:20:20.177Z,38.25
2022-11-24T10:21:20.265Z,38.23
2022-11-24T10:22:20.361Z,38.23
2022-11-24T10:23:20.533Z,38.22
2022-11-24T10:24:20.530Z,38.22
2022-11-24T10:25:20.623Z,38.24
2022-11-24T10:26:20.706Z,38.19
2022-11-24T10:27:20.783Z,38.21
2022-11-24T10:28:20.865Z,38.24
2022-11-24T10:29:21.039Z,38.21
2022-11-24T10:30:21.018Z,38.21
2022-11-24T10:31:21.237Z,38.21
2022-11-24T10:32:21.153Z,38.23
2022-11-24T10:33:24.268Z,38.25
2022-11-24T10:34:21.305Z,38.27
2022-11-24T10:35:21.383Z,38.28
2022-11-24T10:36:27.418Z,38.26
2022-11-24T10:37:21.511Z,38.26
2022-11-24T10:38:21.587Z,38.24
2022-11-24T10:39:21.677Z,38.27
2022-11-24T10:40:48.595Z,38.26
2022-11-24T10:41:21.874Z,38.29
2022-11-24T10:42:21.954Z,38.31
2022-11-24T10:43:22.045Z,38.27
2022-11-24T10:44:22.133Z,38.26
2022-11-24T10:45:22.225Z,38.28
2022-11-24T10:46:22.447Z,38.30
2022-11-24T10:47:22.370Z,38.33
2022-11-24T10:48:22.451Z,38.31
2022-11-24T10:49:22.551Z,38.30
2022-11-24T10:50:22.594Z,38.31
2022-11-24T10:51:22.772Z,38.31
2022-11-24T10:52:22.742Z,38.28
2022-11-24T10:53:22.823Z,38.27
2022-11-24T10:54:22.917Z,38.29
2022-11-24T10:55:22.999Z,38.29
2022-11-24T10:56:23.112Z,38.33
2022-11-24T10:57:23.261Z,38.32
2022-11-24T10:58:23.238Z,38.32
2022-11-24T10:59:23.300Z,38.30
2022-11-24T11:00:23.381Z,38.29
2022-11-24T11:01:23.503Z,38.28
2022-11-24T11:02:23.680Z,38.26
2022-11-24T11:03:23.605Z,38.27
2022-11-24T11:04:23.688Z,38.25
2022-11-24T11:05:23.792Z,38.23
2022-11-24T11:06:23.951Z,38.24
2022-11-24T11:07:30.365Z,38.22
2022-11-24T11:08:24.012Z,38.29
2022-11-24T11:09:24.094Z,38.27
2022-11-24T11:10:24.183Z,38.27
2022-11-24T11:11:24.262Z,38.27
2022-11-24T11:13:24.491Z,38.24
2022-11-24T11:14:24.485Z,38.19
2022-11-24T11:15:24.566Z,38.18
2022-11-24T11:16:24.692Z,38.15
2022-11-24T11:17:24.756Z,38.11
2022-11-24T11:18:24.849Z,38.11
2022-11-24T11:19:47.847Z,38.13
2022-11-24T11:20:25.011Z,38.13
2022-11-24T11:21:25.080Z,38.13
2022-11-24T11:22:25.172Z,38.15
2022-11-24T11:23:25.225Z,38.16
2022-11-24T11:24:25.308Z,38.16
2022-11-24T11:25:25.452Z,38.14
2022-11-24T11:26:25.475Z,38.16
2022-11-24T11:27:25.541Z,38.18
2022-11-24T11:28:25.620Z,38.17
2022-11-24T11:31:25.829Z,38.24
2022-11-24T11:34:30.149Z,38.27
2022-11-24T11:35:26.109Z,38.26
2022-11-24T11:36:26.217Z,38.24
2022-11-24T11:37:26.274Z,38.22
2022-11-24T11:38:32.338Z,38.26
2022-11-24T11:39:26.433Z,38.30
2022-11-24T11:40:26.475Z,38.26
2022-11-24T11:41:26.661Z,38.27
2022-11-24T11:43:00.282Z,38.28
2022-11-24T11:43:26.702Z,38.30
2022-11-24T11:44:26.769Z,38.28
2022-11-24T11:45:26.863Z,38.31
2022-11-24T11:46:26.962Z,38.32
2022-11-24T11:47:27.117Z,38.30
2022-11-24T11:48:27.070Z,38.29
2022-11-24T11:49:27.154Z,38.30
2022-11-24T11:50:27.311Z,38.29
2022-11-24T11:51:27.383Z,38.30
2022-11-24T11:52:27.419Z,38.32
2022-11-24T11:53:27.498Z,38.32
2022-11-24T11:54:27.544Z,38.31
2022-11-24T11:55:27.639Z,38.26
2022-11-24T11:56:27.722Z,38.29
2022-11-24T11:57:27.820Z,38.29
2022-11-24T11:58:27.922Z,38.30
2022-11-24T11:59:28.039Z,38.31
2022-11-24T12:00:28.096Z,38.29
2022-11-24T12:01:28.217Z,38.27
2022-11-24T12:02:28.460Z,38.27
2022-11-24T12:03:28.505Z,38.26
2022-11-24T12:04:28.440Z,38.23
2022-11-24T12:05:28.557Z,38.25
2022-11-24T12:06:28.603Z,38.25
2022-11-24T12:07:28.749Z,38.23
2022-11-24T12:08:28.764Z,38.27
2022-11-24T12:09:35.319Z,38.26
2022-11-24T12:10:28.965Z,38.30
2022-11-24T12:11:29.115Z,38.32
2022-11-24T12:12:29.075Z,38.34
2022-11-24T12:13:29.149Z,38.32
2022-11-24T12:14:29.232Z,38.31
2022-11-24T12:15:29.311Z,38.27
2022-11-24T12:16:29.519Z,38.30
2022-11-24T12:17:29.502Z,38.32
2022-11-24T12:19:29.680Z,38.29
2022-11-24T12:20:29.732Z,38.28
2022-11-24T12:21:29.808Z,38.25
2022-11-24T12:22:29.896Z,38.25
2022-11-24T12:23:30.092Z,38.28
2022-11-24T12:24:30.116Z,38.30
2022-11-24T12:25:30.123Z,38.28
2022-11-24T12:26:30.214Z,38.28
2022-11-24T12:27:30.303Z,38.29
2022-11-24T12:28:30.389Z,38.26
2022-11-24T12:29:30.608Z,38.31
2022-11-24T12:30:30.563Z,38.31
2022-11-24T12:31:30.718Z,38.28
2022-11-24T12:32:30.716Z,38.28
2022-11-24T12:33:30.791Z,38.30
2022-11-24T12:34:31.309Z,38.27
2022-11-24T12:35:30.987Z,38.25
2022-11-24T12:36:31.065Z,38.22
2022-11-24T12:37:31.152Z,38.24
2022-11-24T12:38:31.235Z,38.23
2022-11-24T12:39:31.309Z,38.23
2022-11-24T12:40:40.873Z,38.24
2022-11-24T12:41:41.654Z,38.28
2022-11-24T12:42:31.551Z,38.31
2022-11-24T12:43:31.638Z,38.29
2022-11-24T12:44:31.719Z,38.31
2022-11-24T12:45:31.806Z,38.33
2022-11-24T12:46:32.064Z,38.32
2022-11-24T12:47:31.994Z,38.31
2022-11-24T12:48:32.093Z,38.28
2022-11-24T12:49:32.280Z,38.30
2022-11-24T12:50:32.256Z,38.29
2022-11-24T12:51:32.354Z,38.30
2022-11-24T12:52:32.545Z,38.30
2022-11-24T12:53:32.515Z,38.30
2022-11-24T12:54:32.599Z,38.28
2022-11-24T12:55:32.702Z,38.29
2022-11-24T12:56:32.792Z,38.27
2022-11-24T12:57:32.887Z,38.28
2022-11-24T12:58:33.002Z,38.26
2022-11-24T12:59:33.447Z,38.27